Time;durP1;ratioP1;P1;durP2;ratioP2;P2;SDS_P1;SDS_P2;PMS_P1;PMS_P2;Temp;Humidity;BMP_temperature;BMP_pressure;BME280_temperature;BME280_humidity;BME280_pressure;Samples;Min_cycle;Max_cycle;Signal;HPM_P1;HPM_P2
2023/05/23 00:00:57;;;;;;;4.13;2.72;;;;;;;9.68;100.00;101793.34;5046000;28;20061;-57
2023/05/23 00:03:23;;;;;;;7.70;3.22;;;;;;;9.60;100.00;101797.59;5047678;28;20316;-58
2023/05/23 00:05:50;;;;;;;2.95;2.28;;;;;;;9.53;100.00;101801.84;5038147;28;20068;-55
2023/05/23 00:08:16;;;;;;;8.05;3.22;;;;;;;9.45;100.00;101798.25;5045584;28;20032;-56
2023/05/23 00:10:41;;;;;;;4.35;2.83;;;;;;;9.33;100.00;101800.31;5037342;28;20204;-54
2023/05/23 00:13:08;;;;;;;3.03;2.05;;;;;;;9.27;100.00;101793.81;5041149;28;20021;-56
2023/05/23 00:15:36;;;;;;;2.53;1.75;;;;;;;9.22;100.00;101796.06;5037982;28;20040;-57
2023/05/23 00:18:01;;;;;;;5.13;1.88;;;;;;;9.18;100.00;101792.06;5039296;28;20077;-54
2023/05/23 00:20:27;;;;;;;3.65;2.28;;;;;;;9.14;100.00;101796.81;5042696;28;20126;-57
2023/05/23 00:22:53;;;;;;;7.13;2.65;;;;;;;9.14;100.00;101799.47;5039233;28;20033;-57
2023/05/23 00:25:20;;;;;;;5.10;2.38;;;;;;;9.11;100.00;101791.84;5041573;28;20044;-55
2023/05/23 00:27:46;;;;;;;4.57;2.58;;;;;;;9.07;100.00;101795.75;5038654;28;20108;-56
2023/05/23 00:30:11;;;;;;;4.60;2.33;;;;;;;9.08;100.00;101802.69;5039115;28;20170;-54
2023/05/23 00:32:36;;;;;;;6.07;2.63;;;;;;;9.05;100.00;101796.88;5040514;28;20048;-56
2023/05/23 00:35:02;;;;;;;6.35;2.63;;;;;;;9.03;100.00;101789.06;5035754;28;20021;-55
2023/05/23 00:37:28;;;;;;;4.75;3.03;;;;;;;8.95;100.00;101784.53;5036487;28;20071;-56
2023/05/23 00:39:53;;;;;;;9.43;2.53;;;;;;;9.03;100.00;101791.72;5037592;28;20044;-53
2023/05/23 00:42:18;;;;;;;3.17;2.20;;;;;;;9.05;100.00;101786.28;5042134;28;20029;-57
2023/05/23 00:44:44;;;;;;;4.10;2.40;;;;;;;9.04;100.00;101784.66;5041048;28;20036;-56
2023/05/23 00:47:12;;;;;;;2.70;1.92;;;;;;;8.97;100.00;101775.63;5044228;28;20071;-57
2023/05/23 00:49:38;;;;;;;6.07;2.00;;;;;;;8.99;100.00;101792.19;5041587;28;20123;-56
2023/05/23 00:52:03;;;;;;;4.60;2.38;;;;;;;8.98;100.00;101790.50;5045955;28;20124;-56
2023/05/23 00:54:32;;;;;;;6.97;3.20;;;;;;;8.94;100.00;101793.47;5041070;28;20033;-56
2023/05/23 00:56:58;;;;;;;3.47;1.90;;;;;;;8.91;100.00;101791.13;5039392;28;20032;-57
2023/05/23 00:59:24;;;;;;;5.22;2.42;;;;;;;8.99;100.00;101784.25;5039962;28;20059;-53
2023/05/23 01:01:51;;;;;;;5.18;2.42;;;;;;;8.95;100.00;101787.19;5047718;28;20090;-55
2023/05/23 01:04:18;;;;;;;4.95;2.05;;;;;;;9.01;100.00;101791.06;5045637;28;20083;-56
2023/05/23 01:06:45;;;;;;;3.40;2.15;;;;;;;8.94;100.00;101790.81;5042621;28;20025;-59
2023/05/23 01:09:12;;;;;;;3.92;2.20;;;;;;;8.87;100.00;101783.63;5037879;28;20104;-53
2023/05/23 01:12:10;;;;;;;3.10;1.70;;;;;;;8.74;100.00;101789.25;5040745;28;20099;-55
2023/05/23 01:14:50;;;;;;;3.22;2.42;;;;;;;8.68;100.00;101781.91;5024641;28;20053;-53
2023/05/23 01:17:40;;;;;;;3.35;2.22;;;;;;;8.69;100.00;101778.28;5041111;28;20036;-59
2023/05/23 01:20:25;;;;;;;2.92;1.55;;;;;;;8.70;100.00;101782.59;5039324;28;20059;-57
2023/05/23 01:23:37;;;;;;;3.42;1.83;;;;;;;8.76;100.00;101789.94;5039595;28;20013;-57
2023/05/23 01:26:22;;;;;;;3.00;2.35;;;;;;;8.99;100.00;101786.91;4939325;28;20670;-53
2023/05/23 01:28:50;;;;;;;4.25;2.55;;;;;;;9.03;100.00;101796.19;4933335;28;20082;-55
2023/05/23 01:31:17;;;;;;;5.35;3.50;;;;;;;9.03;100.00;101788.25;4994762;28;20144;-57
2023/05/23 01:33:43;;;;;;;6.25;2.10;;;;;;;9.03;100.00;101794.38;5035244;28;20036;-56
2023/05/23 01:36:12;;;;;;;2.75;1.80;;;;;;;9.02;100.00;101797.19;5042428;28;20463;-52
2023/05/23 01:38:37;;;;;;;4.40;2.15;;;;;;;9.07;100.00;101793.09;5041457;28;20130;-52
2023/05/23 01:41:02;;;;;;;4.07;2.50;;;;;;;9.10;100.00;101797.25;5043704;28;20033;-53
2023/05/23 01:43:28;;;;;;;7.43;2.75;;;;;;;9.05;100.00;101796.88;5042992;28;20120;-56
2023/05/23 01:45:56;;;;;;;5.38;2.53;;;;;;;9.04;100.00;101793.41;5042625;28;20021;-58
2023/05/23 01:48:23;;;;;;;3.92;2.28;;;;;;;8.98;100.00;101795.81;5043883;28;20039;-57
2023/05/23 01:50:49;;;;;;;5.32;2.90;;;;;;;8.96;100.00;101801.25;5039190;28;20028;-55
2023/05/23 01:53:18;;;;;;;8.73;2.20;;;;;;;8.99;100.00;101794.84;5042161;28;20032;-56
2023/05/23 01:55:44;;;;;;;4.85;2.60;;;;;;;9.03;100.00;101798.84;5041558;28;20024;-56
2023/05/23 01:58:09;;;;;;;4.97;3.08;;;;;;;9.00;100.00;101799.97;5042282;28;20083;-57
2023/05/23 02:00:35;;;;;;;3.90;1.48;;;;;;;9.00;100.00;101804.44;5037047;28;20020;-57
2023/05/23 02:03:01;;;;;;;2.63;1.55;;;;;;;8.91;100.00;101806.97;5043267;28;20039;-56
2023/05/23 02:05:26;;;;;;;3.42;1.80;;;;;;;8.88;100.00;101802.00;5041930;28;20477;-54
2023/05/23 02:07:52;;;;;;;6.25;2.40;;;;;;;8.88;100.00;101806.44;5024023;28;20078;-54
2023/05/23 02:10:18;;;;;;;2.42;1.60;;;;;;;8.89;100.00;101808.94;5039517;28;20041;-52
2023/05/23 02:12:43;;;;;;;6.10;2.72;;;;;;;8.92;100.00;101808.63;5041938;28;21637;-55
2023/05/23 02:15:09;;;;;;;4.20;2.42;;;;;;;9.04;100.00;101817.22;5038360;28;20111;-59
2023/05/23 02:17:34;;;;;;;2.50;2.08;;;;;;;9.01;100.00;101820.16;5041018;28;20100;-54
2023/05/23 02:20:00;;;;;;;5.97;1.98;;;;;;;9.01;100.00;101824.59;5042277;28;20470;-54
2023/05/23 02:22:25;;;;;;;4.47;1.92;;;;;;;8.94;100.00;101819.91;5042277;28;20029;-57
2023/05/23 02:24:51;;;;;;;3.75;2.00;;;;;;;8.86;100.00;101819.81;5042460;28;20451;-55
2023/05/23 02:27:17;;;;;;;4.78;1.65;;;;;;;8.80;100.00;101823.03;5037500;28;20120;-54
2023/05/23 02:29:42;;;;;;;3.20;1.73;;;;;;;8.74;100.00;101823.63;5036923;28;20124;-56
2023/05/23 02:32:07;;;;;;;3.90;1.40;;;;;;;8.66;100.00;101837.56;5040403;28;20091;-56
2023/05/23 02:34:32;;;;;;;3.78;1.35;;;;;;;8.65;100.00;101833.28;5037162;28;20029;-54
2023/05/23 02:36:58;;;;;;;2.78;1.52;;;;;;;8.60;100.00;101842.63;5041220;28;20099;-55
2023/05/23 02:39:23;;;;;;;2.72;1.95;;;;;;;8.69;100.00;101839.09;5043015;28;20108;-54
2023/05/23 02:41:49;;;;;;;3.10;1.70;;;;;;;8.67;100.00;101838.41;5038978;28;20480;-53
2023/05/23 02:44:14;;;;;;;2.53;1.38;;;;;;;8.71;100.00;101851.19;5042162;28;20538;-56
2023/05/23 02:46:39;;;;;;;5.25;2.72;;;;;;;8.74;100.00;101847.44;5036350;28;20037;-53
2023/05/23 02:49:05;;;;;;;1.38;1.27;;;;;;;8.64;100.00;101849.28;5041511;28;20036;-59
2023/05/23 02:51:31;;;;;;;8.13;2.33;;;;;;;8.61;100.00;101849.56;5038051;28;20534;-54
2023/05/23 02:53:56;;;;;;;3.45;2.33;;;;;;;8.58;100.00;101849.88;5041651;28;20619;-55
2023/05/23 02:56:22;;;;;;;4.38;1.80;;;;;;;8.51;100.00;101858.34;5036495;28;20036;-56
2023/05/23 02:58:47;;;;;;;3.78;1.50;;;;;;;8.50;100.00;101856.69;5038701;28;20029;-55
2023/05/23 03:01:13;;;;;;;1.92;1.20;;;;;;;8.45;100.00;101851.00;5041090;28;20037;-58
2023/05/23 03:03:40;;;;;;;5.93;1.55;;;;;;;8.48;100.00;101852.53;5042151;28;20033;-55
2023/05/23 03:06:06;;;;;;;3.63;1.55;;;;;;;8.46;100.00;101860.59;5037940;28;20079;-54
2023/05/23 03:08:31;;;;;;;3.17;1.15;;;;;;;8.40;100.00;101858.53;5045729;28;20025;-51
2023/05/23 03:10:56;;;;;;;3.58;1.98;;;;;;;8.39;100.00;101859.53;5046602;28;20116;-52
2023/05/23 03:13:22;;;;;;;2.42;0.75;;;;;;;8.54;100.00;101864.34;5041631;28;20108;-55
2023/05/23 03:15:47;;;;;;;1.73;0.77;;;;;;;8.61;100.00;101868.91;5042243;28;20048;-55
2023/05/23 03:18:12;;;;;;;2.38;1.58;;;;;;;8.51;100.00;101862.81;5040904;28;20048;-55
2023/05/23 03:20:38;;;;;;;8.23;2.58;;;;;;;8.46;100.00;101865.88;5037603;28;20068;-57
2023/05/23 03:23:03;;;;;;;2.30;1.10;;;;;;;8.43;100.00;101855.59;5036680;28;20794;-58
2023/05/23 03:25:28;;;;;;;2.75;1.27;;;;;;;8.46;100.00;101865.06;5051394;28;20557;-54
2023/05/23 03:27:54;;;;;;;3.30;0.88;;;;;;;8.52;100.00;101857.41;5045625;28;20132;-56
2023/05/23 03:30:20;;;;;;;2.78;1.17;;;;;;;8.59;100.00;101862.09;5039376;28;20025;-56
2023/05/23 03:32:45;;;;;;;1.92;1.15;;;;;;;8.70;100.00;101859.28;5051434;28;20090;-57
2023/05/23 03:35:11;;;;;;;2.15;1.30;;;;;;;8.69;100.00;101858.44;5039543;28;20103;-56
2023/05/23 03:37:36;;;;;;;1.33;1.05;;;;;;;8.71;100.00;101855.66;5042078;28;20547;-54
2023/05/23 03:40:02;;;;;;;2.97;1.77;;;;;;;8.67;100.00;101856.91;5041272;28;20027;-58
2023/05/23 03:42:28;;;;;;;5.18;2.45;;;;;;;8.68;100.00;101848.03;5045064;28;20141;-51
2023/05/23 03:44:53;;;;;;;4.90;0.85;;;;;;;8.76;100.00;101861.34;5041414;28;20025;-59
2023/05/23 03:47:18;;;;;;;4.30;1.10;;;;;;;8.80;100.00;101862.69;5043978;28;20037;-54
2023/05/23 03:49:44;;;;;;;2.05;1.05;;;;;;;8.84;100.00;101864.09;5044892;28;20459;-57
2023/05/23 03:52:10;;;;;;;1.45;0.60;;;;;;;8.87;100.00;101861.16;5043065;28;20040;-56
2023/05/23 03:54:36;;;;;;;1.85;0.70;;;;;;;8.95;100.00;101850.66;5039443;28;20045;-56
2023/05/23 03:57:01;;;;;;;0.43;0.43;;;;;;;8.95;100.00;101849.84;5047026;28;20453;-56
2023/05/23 03:59:27;;;;;;;2.05;1.15;;;;;;;8.84;100.00;101864.09;5045372;28;20452;-56
2023/05/23 04:01:52;;;;;;;1.48;0.40;;;;;;;8.77;100.00;101868.28;5039268;28;20025;-57
2023/05/23 04:04:19;;;;;;;5.07;0.98;;;;;;;8.77;100.00;101859.53;5037493;28;20037;-57
2023/05/23 04:06:46;;;;;;;5.70;2.88;;;;;;;8.80;100.00;101864.53;5044699;28;20040;-52
2023/05/23 04:09:12;;;;;;;1.15;0.60;;;;;;;8.83;100.00;101862.44;5043936;28;20686;-54
2023/05/23 04:11:38;;;;;;;2.20;1.58;;;;;;;8.77;100.00;101856.88;5045036;28;20317;-54
2023/05/23 04:14:03;;;;;;;3.03;1.42;;;;;;;8.67;100.00;101857.78;5048612;28;20107;-55
2023/05/23 04:16:31;;;;;;;1.15;0.40;;;;;;;8.60;100.00;101863.78;5044693;28;20477;-58
2023/05/23 04:18:57;;;;;;;5.20;0.75;;;;;;;8.55;100.00;101858.09;5038811;28;20512;-54
2023/05/23 04:21:23;;;;;;;4.68;0.90;;;;;;;8.57;100.00;101858.75;5042134;28;20123;-56
2023/05/23 04:23:48;;;;;;;9.82;1.40;;;;;;;8.54;100.00;101857.22;5037611;28;20029;-58
2023/05/23 04:26:13;;;;;;;1.88;0.45;;;;;;;8.59;100.00;101859.44;5047752;28;20598;-56
2023/05/23 04:28:39;;;;;;;2.22;0.68;;;;;;;8.62;100.00;101864.44;5044501;28;20547;-56
2023/05/23 04:31:04;;;;;;;0.40;0.13;;;;;;;8.61;100.00;101866.25;5041784;28;20060;-57
2023/05/23 04:33:30;;;;;;;6.22;0.52;;;;;;;8.59;100.00;101865.56;5046825;28;20109;-53
2023/05/23 04:35:56;;;;;;;2.58;0.70;;;;;;;8.57;100.00;101877.25;5037712;28;20585;-59
2023/05/23 04:38:23;;;;;;;6.07;1.83;;;;;;;8.51;100.00;101882.16;5041375;28;20157;-54
2023/05/23 04:40:49;;;;;;;1.75;0.90;;;;;;;8.50;100.00;101877.84;5046948;28;20056;-55
2023/05/23 04:43:15;;;;;;;6.18;0.77;;;;;;;8.50;100.00;101882.31;5046274;28;20056;-58
2023/05/23 04:45:40;;;;;;;3.33;0.68;;;;;;;8.57;100.00;101893.13;5046837;28;20496;-58
2023/05/23 04:48:06;;;;;;;7.72;0.98;;;;;;;8.61;100.00;101894.50;5042255;28;20044;-52
2023/05/23 04:50:34;;;;;;;0.77;0.52;;;;;;;8.76;100.00;101901.00;5038790;28;20374;-56
2023/05/23 04:53:01;;;;;;;4.32;0.45;;;;;;;8.80;100.00;101910.31;5044511;28;20139;-58
2023/05/23 04:55:26;;;;;;;2.13;1.52;;;;;;;8.86;100.00;101908.91;5037651;28;20629;-59
2023/05/23 04:57:51;;;;;;;5.68;1.55;;;;;;;9.00;100.00;101904.97;5042198;28;20035;-57
2023/05/23 05:00:17;;;;;;;2.50;0.55;;;;;;;9.05;100.00;101914.13;5043442;28;20037;-53
2023/05/23 05:02:42;;;;;;;4.00;0.77;;;;;;;9.14;100.00;101909.78;5045938;28;20397;-56
2023/05/23 05:05:08;;;;;;;6.45;0.68;;;;;;;9.17;100.00;101905.03;5021680;28;20119;-57
2023/05/23 05:07:34;;;;;;;2.28;0.80;;;;;;;8.98;100.00;101912.19;5038405;28;20120;-55
2023/05/23 05:10:00;;;;;;;3.60;2.30;;;;;;;8.94;100.00;101915.13;5039591;28;20037;-57
2023/05/23 05:12:25;;;;;;;2.35;0.70;;;;;;;9.06;100.00;101910.50;5034792;28;20025;-54
2023/05/23 05:14:50;;;;;;;2.47;0.63;;;;;;;9.04;100.00;101919.56;5043510;28;20046;-59
2023/05/23 05:17:17;;;;;;;1.60;0.30;;;;;;;9.03;100.00;101921.38;5035314;28;20037;-55
2023/05/23 05:19:42;;;;;;;4.53;1.13;;;;;;;9.05;100.00;101926.53;5040882;28;20516;-55
2023/05/23 05:22:08;;;;;;;2.10;0.90;;;;;;;9.14;100.00;101926.50;5038372;28;20064;-56
2023/05/23 05:24:33;;;;;;;1.95;0.47;;;;;;;9.25;100.00;101920.16;5040609;28;20091;-56
2023/05/23 05:26:58;;;;;;;5.72;1.40;;;;;;;9.32;100.00;101921.25;5038309;28;20051;-56
2023/05/23 05:29:24;;;;;;;1.05;0.50;;;;;;;9.39;100.00;101922.28;5044715;28;20044;-58
2023/05/23 05:31:50;;;;;;;3.88;0.55;;;;;;;9.45;100.00;101931.50;5038519;28;20033;-57
2023/05/23 05:34:15;;;;;;;3.83;0.65;;;;;;;9.61;100.00;101930.84;5038936;28;20806;-56
2023/05/23 05:36:45;;;;;;;4.22;0.80;;;;;;;9.72;100.00;101933.25;5036578;28;20029;-56
2023/05/23 05:39:12;;;;;;;0.88;0.52;;;;;;;9.88;100.00;101929.94;5040025;28;20473;-57
2023/05/23 05:41:37;;;;;;;2.60;1.48;;;;;;;10.04;100.00;101931.91;5036740;28;20028;-56
2023/05/23 05:44:03;;;;;;;4.70;1.77;;;;;;;10.17;100.00;101937.66;5037846;28;20041;-61
2023/05/23 05:46:28;;;;;;;6.30;1.35;;;;;;;10.20;100.00;101926.75;5042329;28;20378;-56
2023/05/23 05:48:53;;;;;;;2.70;0.73;;;;;;;10.25;100.00;101918.34;5039771;28;20039;-54
2023/05/23 05:51:19;;;;;;;7.00;0.82;;;;;;;10.24;100.00;101921.97;5039757;28;20029;-58
2023/05/23 05:53:45;;;;;;;2.20;0.88;;;;;;;10.25;100.00;101931.59;5037046;28;20021;-58
2023/05/23 05:56:10;;;;;;;7.03;1.30;;;;;;;10.26;100.00;101931.44;5032225;28;20529;-55
2023/05/23 05:58:35;;;;;;;6.10;2.35;;;;;;;10.33;100.00;101922.91;5039132;28;20035;-54
2023/05/23 06:01:01;;;;;;;5.90;0.60;;;;;;;10.39;100.00;101922.28;5039581;28;20025;-54
2023/05/23 06:03:26;;;;;;;5.38;1.00;;;;;;;10.37;100.00;101916.31;5036863;28;20063;-54
2023/05/23 06:05:51;;;;;;;3.72;0.50;;;;;;;10.39;100.00;101911.69;5034218;28;20108;-52
2023/05/23 06:08:17;;;;;;;6.40;1.08;;;;;;;10.41;100.00;101913.19;5033878;28;20492;-56
2023/05/23 06:10:42;;;;;;;1.65;0.82;;;;;;;10.49;100.00;101915.06;5018579;28;20119;-58
2023/05/23 06:13:07;;;;;;;6.25;1.33;;;;;;;10.59;100.00;101917.63;5035012;28;20041;-57
2023/05/23 06:15:33;;;;;;;6.82;0.35;;;;;;;10.76;100.00;101922.03;5035030;28;20074;-57
2023/05/23 06:17:58;;;;;;;2.00;0.90;;;;;;;10.92;100.00;101916.00;5029636;28;20032;-60
2023/05/23 06:20:23;;;;;;;7.22;0.50;;;;;;;11.04;100.00;101916.53;5042052;28;20770;-59
2023/05/23 06:22:48;;;;;;;5.35;1.40;;;;;;;11.12;100.00;101911.25;5039702;28;20511;-59
2023/05/23 06:25:14;;;;;;;4.63;1.50;;;;;;;11.14;100.00;101915.41;5040125;28;20051;-59
2023/05/23 06:27:40;;;;;;;3.85;0.70;;;;;;;11.15;100.00;101916.25;5037578;28;20029;-51
2023/05/23 06:30:06;;;;;;;12.35;0.95;;;;;;;11.12;100.00;101916.56;5041871;28;20082;-58
2023/05/23 06:32:31;;;;;;;4.13;0.50;;;;;;;11.08;100.00;101921.38;5043330;28;20116;-58
2023/05/23 06:34:56;;;;;;;4.80;0.77;;;;;;;11.09;100.00;101927.50;5041122;28;20355;-58
2023/05/23 06:37:22;;;;;;;2.72;0.60;;;;;;;11.43;100.00;101922.16;5032731;28;20020;-57
2023/05/23 06:39:47;;;;;;;2.85;0.60;;;;;;;11.60;100.00;101920.38;5040946;28;20078;-58
2023/05/23 06:42:12;;;;;;;4.43;1.40;;;;;;;11.77;100.00;101918.56;5035919;28;20068;-58
2023/05/23 06:44:37;;;;;;;3.30;0.38;;;;;;;11.87;100.00;101915.81;5037926;28;20041;-56
2023/05/23 06:47:03;;;;;;;4.95;0.45;;;;;;;11.99;100.00;101915.31;5037081;28;20028;-56
2023/05/23 06:49:28;;;;;;;3.20;0.52;;;;;;;12.17;100.00;101912.50;5037799;28;20028;-55
2023/05/23 06:51:54;;;;;;;8.82;0.70;;;;;;;12.32;100.00;101920.66;5039746;28;20338;-59
2023/05/23 06:54:19;;;;;;;7.20;2.05;;;;;;;12.39;100.00;101921.66;5040071;28;20026;-59
2023/05/23 06:56:45;;;;;;;9.02;0.68;;;;;;;12.43;100.00;101920.28;5040520;28;20029;-56
2023/05/23 06:59:10;;;;;;;3.10;0.63;;;;;;;12.56;100.00;101922.44;5037398;28;20041;-57
2023/05/23 07:01:35;;;;;;;2.40;0.32;;;;;;;12.66;100.00;101928.41;5037541;28;20029;-57
2023/05/23 07:04:01;;;;;;;1.88;0.55;;;;;;;12.71;100.00;101919.91;5037705;28;20033;-59
2023/05/23 07:06:26;;;;;;;4.13;0.60;;;;;;;12.78;100.00;101920.91;5042697;28;20044;-58
2023/05/23 07:08:52;;;;;;;2.88;0.52;;;;;;;12.98;100.00;101921.31;5035937;28;20410;-58
2023/05/23 07:11:18;;;;;;;3.35;0.85;;;;;;;13.12;100.00;101925.13;5039971;28;20067;-57
2023/05/23 07:13:44;;;;;;;1.70;0.20;;;;;;;13.10;100.00;101919.13;5036227;28;20068;-60
2023/05/23 07:16:09;;;;;;;7.57;1.00;;;;;;;13.45;100.00;101925.84;5039714;28;20071;-58
2023/05/23 07:18:34;;;;;;;4.50;0.65;;;;;;;13.65;100.00;101907.53;5033839;28;20443;-58
2023/05/23 07:21:00;;;;;;;3.15;0.65;;;;;;;13.82;100.00;101910.13;5037216;28;20033;-56
2023/05/23 07:23:25;;;;;;;2.60;0.75;;;;;;;13.98;100.00;101902.00;5031950;28;20040;-59
2023/05/23 07:25:51;;;;;;;1.80;0.40;;;;;;;14.02;100.00;101903.31;5036921;28;20111;-58
2023/05/23 07:28:16;;;;;;;0.90;0.13;;;;;;;13.95;100.00;101910.34;5034458;28;20032;-58
2023/05/23 07:30:41;;;;;;;1.42;0.30;;;;;;;13.98;100.00;101910.00;5042903;28;20497;-60
2023/05/23 07:33:07;;;;;;;2.60;0.50;;;;;;;13.99;100.00;101910.81;5041345;28;20029;-57
2023/05/23 07:35:32;;;;;;;5.10;0.88;;;;;;;14.08;100.00;101921.25;5039890;28;20075;-59
2023/05/23 07:37:57;;;;;;;5.63;0.70;;;;;;;14.25;100.00;101921.09;5039879;28;20558;-56
2023/05/23 07:40:23;;;;;;;4.13;0.77;;;;;;;14.27;100.00;101919.09;5033890;28;20033;-52
2023/05/23 07:42:49;;;;;;;5.95;1.40;;;;;;;14.23;100.00;101926.63;5032391;28;20045;-58
2023/05/23 07:45:14;;;;;;;0.75;0.40;;;;;;;14.42;100.00;101925.28;5039237;28;20385;-56
2023/05/23 07:47:40;;;;;;;7.43;0.40;;;;;;;14.77;100.00;101931.00;5039193;28;20026;-54
2023/05/23 07:50:07;;;;;;;2.00;0.65;;;;;;;15.01;100.00;101933.38;5044454;28;20047;-54
2023/05/23 07:52:32;;;;;;;3.20;0.50;;;;;;;15.01;100.00;101930.69;5038923;28;20094;-54
2023/05/23 07:54:58;;;;;;;2.60;0.50;;;;;;;14.98;100.00;101931.06;5037696;28;20034;-59
2023/05/23 07:57:23;;;;;;;3.30;0.40;;;;;;;15.15;100.00;101922.84;5040376;28;20045;-56
2023/05/23 07:59:50;;;;;;;6.55;0.28;;;;;;;15.14;100.00;101934.56;5032710;28;20048;-53
2023/05/23 08:02:16;;;;;;;3.33;0.45;;;;;;;15.10;100.00;101936.78;5031834;28;20038;-59
2023/05/23 08:04:41;;;;;;;4.22;0.68;;;;;;;15.14;100.00;101935.38;5040228;28;20033;-59
2023/05/23 08:07:07;;;;;;;1.60;0.57;;;;;;;15.19;100.00;101932.16;5043882;28;20482;-58
2023/05/23 08:09:33;;;;;;;2.67;0.40;;;;;;;15.17;100.00;101931.53;5043249;28;20044;-56
2023/05/23 08:11:58;;;;;;;2.45;0.40;;;;;;;15.24;100.00;101935.09;5039798;28;20033;-59
2023/05/23 08:14:23;;;;;;;5.63;1.10;;;;;;;15.36;100.00;101932.78;5037310;28;20040;-62
2023/05/23 08:16:49;;;;;;;1.95;0.77;;;;;;;15.33;100.00;101936.63;5038459;28;20174;-55
2023/05/23 08:19:14;;;;;;;1.05;0.30;;;;;;;15.39;100.00;101930.56;5040387;28;20083;-60
2023/05/23 08:21:41;;;;;;;4.82;0.85;;;;;;;15.54;100.00;101932.34;5033699;28;20025;-56
2023/05/23 08:24:06;;;;;;;1.63;0.43;;;;;;;15.36;100.00;101928.28;5043182;28;20037;-56
2023/05/23 08:26:33;;;;;;;3.90;0.30;;;;;;;15.30;100.00;101937.03;5042461;28;20130;-60
2023/05/23 08:29:01;;;;;;;3.22;0.55;;;;;;;15.33;100.00;101927.81;5043171;28;20025;-58
2023/05/23 08:31:29;;;;;;;2.45;1.25;;;;;;;15.50;100.00;101923.91;5042165;28;20033;-60
2023/05/23 08:33:55;;;;;;;5.90;0.55;;;;;;;15.67;100.00;101921.84;5040195;28;20029;-56
2023/05/23 08:36:21;;;;;;;2.38;0.25;;;;;;;15.80;100.00;101922.00;5045191;28;20086;-57
2023/05/23 08:38:46;;;;;;;8.18;0.30;;;;;;;15.86;100.00;101923.09;5044317;28;20489;-57
2023/05/23 08:41:17;;;;;;;0.88;0.52;;;;;;;15.84;100.00;101915.22;5041676;28;20052;-58
2023/05/23 08:43:43;;;;;;;2.72;0.57;;;;;;;15.79;100.00;101920.31;5039693;28;20327;-58
2023/05/23 08:46:09;;;;;;;2.78;0.73;;;;;;;15.81;100.00;101912.94;5041869;28;20037;-58
2023/05/23 08:48:37;;;;;;;6.25;1.67;;;;;;;15.91;100.00;101913.47;5042113;28;20032;-57
2023/05/23 08:51:03;;;;;;;1.80;0.40;;;;;;;15.98;100.00;101913.53;5040207;28;20048;-55
2023/05/23 08:53:30;;;;;;;2.85;0.40;;;;;;;15.94;100.00;101919.44;5039385;28;20024;-52
2023/05/23 08:56:01;;;;;;;2.22;0.32;;;;;;;16.01;100.00;101923.84;5041878;28;20311;-58
2023/05/23 08:58:30;;;;;;;5.57;0.40;;;;;;;16.10;100.00;101919.19;5041990;28;20021;-58
2023/05/23 09:00:56;;;;;;;1.23;0.28;;;;;;;16.23;100.00;101911.25;5040014;28;20025;-57
2023/05/23 09:03:22;;;;;;;4.78;0.73;;;;;;;16.36;100.00;101919.38;5041770;28;20037;-59
2023/05/23 09:05:48;;;;;;;3.22;0.82;;;;;;;16.53;100.00;101924.47;5035188;28;20115;-56
2023/05/23 09:08:15;;;;;;;3.17;0.40;;;;;;;16.86;100.00;101921.22;5047257;28;20834;-53
2023/05/23 09:10:41;;;;;;;3.47;0.85;;;;;;;17.18;100.00;101919.72;5040602;28;20428;-57
2023/05/23 09:13:08;;;;;;;1.45;0.60;;;;;;;17.07;100.00;101923.78;5038568;28;20025;-58
2023/05/23 09:15:34;;;;;;;2.63;0.25;;;;;;;17.04;100.00;101924.19;5045775;28;20060;-54
2023/05/23 09:18:03;;;;;;;1.88;0.35;;;;;;;17.04;100.00;101921.50;5042960;28;20067;-53
2023/05/23 09:20:28;;;;;;;3.08;0.30;;;;;;;17.09;100.00;101924.41;5041771;28;20029;-51
2023/05/23 09:22:54;;;;;;;3.28;0.40;;;;;;;16.86;100.00;101921.22;5025694;28;20485;-59
2023/05/23 09:25:20;;;;;;;3.97;1.10;;;;;;;16.66;100.00;101921.88;5042133;28;20075;-55
2023/05/23 09:27:45;;;;;;;1.48;0.68;;;;;;;16.52;100.00;101933.50;5046689;28;20037;-56
2023/05/23 09:30:11;;;;;;;3.38;0.68;;;;;;;16.06;100.00;101944.69;5038577;28;20492;-61
2023/05/23 09:32:37;;;;;;;3.70;0.75;;;;;;;15.84;100.00;101935.81;5034699;28;20037;-56
2023/05/23 09:35:05;;;;;;;7.03;1.58;;;;;;;16.00;100.00;101940.06;5037159;28;20431;-57
2023/05/23 09:37:32;;;;;;;5.15;0.77;;;;;;;16.51;100.00;101942.56;5043157;28;20034;-53
2023/05/23 09:39:59;;;;;;;1.48;0.40;;;;;;;16.89;100.00;101942.25;5037791;28;20041;-53
2023/05/23 09:42:30;;;;;;;4.50;0.52;;;;;;;17.11;100.00;101942.97;5038407;28;20029;-54
2023/05/23 09:44:55;;;;;;;2.80;0.85;;;;;;;17.10;100.00;101942.13;5040393;28;20025;-54
2023/05/23 09:47:20;;;;;;;1.63;0.50;;;;;;;17.25;100.00;101930.47;5042863;28;20044;-56
2023/05/23 09:49:46;;;;;;;5.20;1.38;;;;;;;17.46;100.00;101930.34;5046580;28;20506;-54
2023/05/23 09:52:12;;;;;;;1.98;1.25;;;;;;;17.67;100.00;101937.41;5039902;28;20045;-56
2023/05/23 09:54:38;;;;;;;4.53;0.47;;;;;;;17.72;100.00;101939.47;5044989;28;20079;-56
2023/05/23 09:57:15;;;;;;;4.40;0.55;;;;;;;17.54;100.00;101930.16;5039697;28;20024;-52
2023/05/23 09:59:50;;;;;;;7.93;0.52;;;;;;;17.73;100.00;101938.44;5043771;28;20078;-55
2023/05/23 10:02:16;;;;;;;4.85;0.45;;;;;;;17.64;100.00;101937.81;5041708;28;20029;-54
2023/05/23 10:04:42;;;;;;;5.28;0.38;;;;;;;17.55;100.00;101933.66;5045893;28;20206;-54
2023/05/23 10:07:14;;;;;;;2.95;1.15;;;;;;;17.47;100.00;101933.84;5042250;28;20032;-55
2023/05/23 10:09:41;;;;;;;1.65;0.77;;;;;;;17.77;100.00;101932.47;5042033;28;20056;-54
2023/05/23 10:12:31;;;;;;;11.45;1.35;;;;;;;18.06;100.00;101933.97;5039888;28;20147;-50
2023/05/23 10:15:08;;;;;;;4.88;0.45;;;;;;;18.17;100.00;101931.72;5035393;28;20044;-56
2023/05/23 10:17:56;;;;;;;3.67;0.93;;;;;;;18.40;100.00;101920.56;5044524;28;20108;-62
2023/05/23 10:20:24;;;;;;;6.22;0.63;;;;;;;18.39;100.00;101933.16;5038469;28;20090;-58
2023/05/23 10:22:50;;;;;;;1.50;0.47;;;;;;;18.24;100.00;101924.50;5039291;28;20434;-56
2023/05/23 10:25:16;;;;;;;4.50;0.70;;;;;;;18.38;100.00;101928.84;5022102;28;20033;-63
2023/05/23 10:27:42;;;;;;;3.63;0.70;;;;;;;18.51;100.00;101928.00;5037623;28;20060;-56
2023/05/23 10:30:08;;;;;;;3.47;0.47;;;;;;;18.60;100.00;101934.78;5034865;28;20140;-51
2023/05/23 10:32:35;;;;;;;6.75;0.43;;;;;;;18.44;100.00;101932.56;5035335;28;20033;-55
2023/05/23 10:35:22;;;;;;;2.63;0.93;;;;;;;18.42;100.00;101924.69;5043863;28;20085;-55
2023/05/23 10:38:00;;;;;;;3.53;1.23;;;;;;;18.49;100.00;101930.06;5036467;28;20040;-62
2023/05/23 10:40:25;;;;;;;3.22;0.50;;;;;;;18.39;100.00;101926.97;5043158;28;20090;-55
2023/05/23 10:43:09;;;;;;;1.50;0.40;;;;;;;18.25;100.00;101926.13;5036901;28;20052;-57
2023/05/23 10:45:42;;;;;;;8.85;1.27;;;;;;;18.04;100.00;101928.00;5039873;28;20347;-61
2023/05/23 10:48:33;;;;;;;3.60;1.45;;;;;;;17.85;99.45;101928.81;5034746;28;20044;-59
2023/05/23 10:51:06;;;;;;;5.10;0.90;;;;;;;17.99;100.00;101933.16;5038642;28;20036;-59
2023/05/23 10:53:35;;;;;;;6.22;0.70;;;;;;;18.17;100.00;101931.72;5036488;28;20603;-56
2023/05/23 10:56:01;;;;;;;4.40;1.13;;;;;;;18.46;100.00;101931.31;5034961;28;20070;-57
2023/05/23 10:58:29;;;;;;;5.45;0.43;;;;;;;18.78;100.00;101930.66;5040962;28;20033;-58
2023/05/23 11:00:58;;;;;;;7.32;1.05;;;;;;;18.92;100.00;101937.63;5038580;28;20497;-56
2023/05/23 11:03:48;;;;;;;2.70;0.40;;;;;;;18.81;99.12;101931.06;5035546;28;20501;-54
2023/05/23 11:06:34;;;;;;;1.60;0.25;;;;;;;18.65;99.71;101929.63;5034001;28;20028;-54
2023/05/23 11:09:04;;;;;;;1.63;0.40;;;;;;;18.62;100.00;101939.97;5040555;28;20029;-54
2023/05/23 11:11:47;;;;;;;1.60;0.65;;;;;;;18.31;96.40;101939.56;5037604;28;20116;-53
2023/05/23 11:14:13;;;;;;;3.60;0.43;;;;;;;18.18;98.26;101934.22;5036299;28;20041;-58
2023/05/23 11:16:40;;;;;;;2.85;0.75;;;;;;;18.20;98.14;101939.34;5035715;28;20378;-53
2023/05/23 11:19:18;;;;;;;4.10;0.52;;;;;;;18.40;98.15;101929.44;5035416;28;20095;-56
2023/05/23 11:21:53;;;;;;;3.70;0.32;;;;;;;18.85;96.39;101928.78;5033400;28;20029;-53